Time;durP1;ratioP1;P1;durP2;ratioP2;P2;SDS_P1;SDS_P2;PMS_P1;PMS_P2;Temp;Humidity;BMP_temperature;BMP_pressure;BME280_temperature;BME280_humidity;BME280_pressure;Samples;Min_cycle;Max_cycle;Signal;HPM_P1;HPM_P2
2022/12/10 00:01:43;;;;;;;10.25;3.38;;;;;;;2.38;96.33;100188.41;4967560;28;20039;-65
2022/12/10 00:04:09;;;;;;;7.72;3.92;;;;;;;2.50;96.50;100186.66;4967955;28;20118;-65
2022/12/10 00:06:37;;;;;;;12.63;5.40;;;;;;;2.57;95.78;100183.56;4951867;28;20443;-65
2022/12/10 00:09:05;;;;;;;6.97;4.60;;;;;;;2.52;95.48;100189.00;4967931;28;20070;-65
2022/12/10 00:11:31;;;;;;;8.80;3.58;;;;;;;2.60;95.84;100193.53;4948227;28;20051;-65
2022/12/10 00:13:57;;;;;;;10.43;4.40;;;;;;;2.59;95.21;100195.41;4966572;28;20054;-65
2022/12/10 00:16:25;;;;;;;10.23;4.65;;;;;;;2.56;95.38;100201.38;4967816;28;20046;-65
2022/12/10 00:18:51;;;;;;;13.27;5.55;;;;;;;2.57;95.71;100191.53;4963618;28;20085;-65
2022/12/10 00:21:26;;;;;;;8.77;3.80;;;;;;;2.63;95.50;100196.34;4966581;28;20026;-65
2022/12/10 00:23:51;;;;;;;11.57;3.75;;;;;;;2.53;95.30;100195.91;4967214;28;20182;-65
2022/12/10 00:26:19;;;;;;;14.65;4.70;;;;;;;2.50;94.69;100199.16;4968851;28;20042;-65
2022/12/10 00:28:47;;;;;;;8.40;2.88;;;;;;;2.20;94.60;100195.56;4995355;28;20045;-65
2022/12/10 00:31:21;;;;;;;7.20;4.30;;;;;;;2.00;95.91;100193.47;5038809;28;20040;-65
2022/12/10 00:33:47;;;;;;;5.65;2.45;;;;;;;2.25;96.20;100199.91;5030018;28;20045;-64
2022/12/10 00:36:16;;;;;;;12.35;4.68;;;;;;;2.36;95.91;100193.22;5024833;28;20394;-65
2022/12/10 00:38:43;;;;;;;10.60;4.22;;;;;;;2.29;95.48;100196.34;5035676;28;20021;-65
2022/12/10 00:41:08;;;;;;;12.45;4.63;;;;;;;2.33;95.83;100197.28;5023604;28;20133;-65
2022/12/10 00:43:34;;;;;;;10.10;3.05;;;;;;;2.44;95.66;100200.44;5027185;28;20117;-65
2022/12/10 00:46:00;;;;;;;6.18;2.95;;;;;;;2.39;95.45;100193.38;5028841;28;20022;-65
2022/12/10 00:48:25;;;;;;;6.20;2.33;;;;;;;2.38;94.53;100212.31;5029098;28;20462;-65
2022/12/10 00:51:15;;;;;;;7.28;3.83;;;;;;;2.40;94.81;100208.22;5043229;28;20033;-65
2022/12/10 00:53:43;;;;;;;6.90;3.42;;;;;;;2.40;93.57;100205.56;5028436;28;20039;-65
2022/12/10 00:56:13;;;;;;;10.02;4.05;;;;;;;2.29;94.63;100216.78;5024937;28;20041;-65
2022/12/10 00:58:40;;;;;;;13.18;4.00;;;;;;;2.39;94.77;100211.19;5029186;28;20026;-65
2022/12/10 01:01:08;;;;;;;6.88;3.72;;;;;;;2.38;94.63;100217.59;5036328;28;20040;-65
2022/12/10 01:03:34;;;;;;;9.68;3.40;;;;;;;2.54;94.32;100211.53;5022649;28;20029;-66
2022/12/10 01:06:18;;;;;;;11.55;4.15;;;;;;;2.08;94.88;100219.25;5036113;28;20039;-65
2022/12/10 01:08:44;;;;;;;5.30;2.67;;;;;;;1.86;96.12;100207.97;5036202;28;20068;-65
2022/12/10 01:11:12;;;;;;;5.97;2.97;;;;;;;1.96;96.78;100211.09;5028500;28;20034;-65
2022/12/10 01:13:38;;;;;;;8.70;3.13;;;;;;;2.17;95.95;100216.66;5028469;28;20025;-65
2022/12/10 01:16:06;;;;;;;9.95;3.30;;;;;;;2.12;95.85;100216.78;5037208;28;20053;-65
2022/12/10 01:18:31;;;;;;;8.07;3.97;;;;;;;2.24;95.89;100212.44;5028230;28;20116;-65
2022/12/10 01:21:05;;;;;;;6.68;3.22;;;;;;;2.29;95.47;100214.94;5029357;28;20120;-65
2022/12/10 01:23:32;;;;;;;5.80;4.30;;;;;;;2.29;95.47;100214.13;5028836;28;20677;-64
2022/12/10 01:26:04;;;;;;;6.40;3.00;;;;;;;2.35;95.59;100221.66;5028916;28;20396;-65
2022/12/10 01:28:33;;;;;;;;;;;;;;;2.35;95.27;100221.66;5028013;28;20064;-64
2022/12/10 01:31:01;;;;;;;6.05;3.65;;;;;;;2.28;95.28;100225.88;5008009;28;19923;-65
2022/12/10 01:33:27;;;;;;;10.63;3.92;;;;;;;2.27;95.08;100218.97;5025711;28;20040;-65
2022/12/10 01:35:52;;;;;;;7.15;3.20;;;;;;;2.26;95.03;100230.72;5031193;28;20025;-64
2022/12/10 01:38:18;;;;;;;3.92;2.40;;;;;;;2.26;95.15;100228.06;5027544;28;20041;-64
2022/12/10 01:40:43;;;;;;;12.40;4.32;;;;;;;2.35;95.34;100224.31;5038819;28;20708;-65
2022/12/10 01:43:14;;;;;;;6.18;4.03;;;;;;;2.40;95.06;100229.47;5011252;28;20409;-64
2022/12/10 01:45:39;;;;;;;13.23;4.18;;;;;;;2.41;95.00;100227.59;5027581;28;20025;-65
2022/12/10 01:48:06;;;;;;;7.82;3.53;;;;;;;2.42;94.90;100229.94;5040302;28;20018;-65
2022/12/10 01:50:31;;;;;;;6.05;4.68;;;;;;;2.60;94.44;100233.41;5023892;28;20096;-64
2022/12/10 01:52:57;;;;;;;5.93;2.35;;;;;;;2.62;94.31;100231.22;5027631;28;20101;-64
2022/12/10 01:55:51;;;;;;;12.57;3.85;;;;;;;2.56;93.91;100230.59;5015361;28;20030;-65
2022/12/10 01:58:18;;;;;;;7.38;3.47;;;;;;;2.60;94.38;100233.41;5027019;28;20036;-64
2022/12/10 02:00:56;;;;;;;8.30;4.38;;;;;;;2.57;94.19;100234.81;5024573;28;20034;-65
2022/12/10 02:03:51;;;;;;;10.45;2.63;;;;;;;2.57;94.29;100232.16;5023528;28;20037;-66
2022/12/10 02:06:28;;;;;;;9.27;3.75;;;;;;;2.45;94.12;100231.19;4997383;28;20041;-65
2022/12/10 02:09:08;;;;;;;9.38;3.20;;;;;;;2.53;93.77;100235.75;5025045;28;20029;-63
2022/12/10 02:11:42;;;;;;;3.30;1.80;;;;;;;2.43;94.02;100230.72;5040084;28;20779;-65
2022/12/10 02:14:23;;;;;;;4.63;3.05;;;;;;;2.66;92.32;100234.81;5028563;28;20021;-64
2022/12/10 02:16:56;;;;;;;4.65;3.08;;;;;;;2.55;93.04;100233.56;5028531;28;20029;-66
2022/12/10 02:19:52;;;;;;;7.05;3.05;;;;;;;2.56;93.25;100243.88;5021549;28;20385;-65
2022/12/10 02:22:22;;;;;;;5.88;2.85;;;;;;;2.66;93.29;100242.78;5026696;28;20045;-64
2022/12/10 02:24:51;;;;;;;5.20;2.40;;;;;;;2.55;93.14;100237.00;5030288;28;20094;-64
2022/12/10 02:27:37;;;;;;;4.75;2.90;;;;;;;2.55;92.92;100244.19;5028446;28;20099;-64
2022/12/10 02:30:04;;;;;;;6.90;2.90;;;;;;;2.55;93.01;100244.19;5027785;28;20029;-64
2022/12/10 02:32:40;;;;;;;6.65;3.50;;;;;;;2.63;92.68;100252.16;5041741;28;20037;-65
2022/12/10 02:35:12;;;;;;;6.82;3.63;;;;;;;2.59;92.54;100247.78;5046201;28;20043;-64
2022/12/10 02:37:49;;;;;;;6.50;2.67;;;;;;;2.60;92.72;100247.47;5007682;28;20044;-65
2022/12/10 02:40:36;;;;;;;5.22;2.88;;;;;;;2.58;92.45;100248.88;5030611;28;20378;-65
2022/12/10 02:43:10;;;;;;;9.70;3.50;;;;;;;2.64;92.35;100244.97;5023931;28;20045;-65
2022/12/10 02:45:37;;;;;;;9.40;3.30;;;;;;;2.54;92.15;100242.63;5025418;28;20550;-65
2022/12/10 02:48:04;;;;;;;9.80;3.35;;;;;;;2.49;92.61;100246.22;5026791;28;20030;-65
2022/12/10 02:50:38;;;;;;;4.88;2.53;;;;;;;2.51;93.00;100243.25;5012018;28;20037;-65
2022/12/10 02:53:03;;;;;;;5.63;2.75;;;;;;;2.43;92.33;100249.31;5035507;28;20509;-65
2022/12/10 02:55:53;;;;;;;5.30;3.03;;;;;;;2.29;92.68;100251.31;5026338;28;20036;-66
2022/12/10 02:58:36;;;;;;;4.07;2.60;;;;;;;2.40;92.96;100247.31;5028078;28;20022;-66
2022/12/10 03:01:24;;;;;;;3.83;2.03;;;;;;;2.37;93.21;100255.88;5037756;28;20368;-65
2022/12/10 03:03:59;;;;;;;5.47;2.80;;;;;;;2.35;92.47;100252.75;5028775;28;20021;-66
2022/12/10 03:06:36;;;;;;;2.97;2.25;;;;;;;2.44;91.77;100249.00;5024675;28;20029;-64
2022/12/10 03:09:06;;;;;;;4.45;2.78;;;;;;;2.43;91.42;100258.09;5028944;28;20187;-65
2022/12/10 03:11:32;;;;;;;4.80;3.33;;;;;;;2.48;91.96;100252.63;5028681;28;20116;-66
2022/12/10 03:14:08;;;;;;;2.28;1.83;;;;;;;2.37;91.33;100248.69;5031539;28;20137;-65
2022/12/10 03:16:42;;;;;;;3.25;2.45;;;;;;;2.31;90.97;100244.63;5025553;28;20124;-65
2022/12/10 03:19:13;;;;;;;8.77;3.08;;;;;;;2.39;91.33;100246.50;5030106;28;21441;-65
2022/12/10 03:21:41;;;;;;;3.33;2.25;;;;;;;2.52;90.94;100250.91;5030099;28;20499;-65
2022/12/10 03:24:09;;;;;;;3.72;2.30;;;;;;;2.64;90.86;100253.72;5045173;28;20080;-65
2022/12/10 03:26:36;;;;;;;2.40;1.65;;;;;;;2.71;90.28;100253.25;5027111;28;20555;-66
2022/12/10 03:29:07;;;;;;;7.75;3.17;;;;;;;2.49;89.48;100246.22;5026778;28;20038;-65
2022/12/10 03:31:34;;;;;;;3.08;2.38;;;;;;;2.50;88.63;100257.63;5029110;28;20048;-66
2022/12/10 03:34:01;;;;;;;2.35;1.63;;;;;;;2.37;88.84;100251.34;5029522;28;20036;-66
2022/12/10 03:36:28;;;;;;;2.38;1.98;;;;;;;2.34;89.39;100245.88;5026549;28;20025;-65
2022/12/10 03:38:54;;;;;;;4.68;2.88;;;;;;;2.33;89.78;100253.06;5025713;28;20071;-66
2022/12/10 03:41:19;;;;;;;3.30;2.28;;;;;;;2.16;89.47;100252.25;5039261;28;20033;-66
2022/12/10 03:43:57;;;;;;;2.78;2.30;;;;;;;2.41;89.96;100264.78;5031334;28;20488;-66
2022/12/10 03:46:24;;;;;;;3.38;2.03;;;;;;;2.16;89.48;100254.88;5028858;28;20112;-66
2022/12/10 03:48:50;;;;;;;4.32;2.22;;;;;;;2.06;90.03;100250.66;5022398;28;20025;-67
2022/12/10 03:51:17;;;;;;;2.75;1.52;;;;;;;2.18;90.18;100255.38;5028543;28;20397;-65
2022/12/10 03:53:42;;;;;;;4.15;2.08;;;;;;;2.47;89.54;100256.38;5043879;28;20033;-65
2022/12/10 03:56:08;;;;;;;5.53;2.08;;;;;;;2.56;89.00;100262.47;5029760;28;20041;-66
2022/12/10 03:58:33;;;;;;;3.33;1.85;;;;;;;2.55;88.97;100257.47;5041329;28;20029;-66
2022/12/10 04:00:59;;;;;;;2.80;1.67;;;;;;;2.41;89.11;100260.28;5031374;28;20036;-66
2022/12/10 04:03:24;;;;;;;5.80;2.55;;;;;;;2.39;88.84;100264.31;5030511;28;20116;-65
2022/12/10 04:05:50;;;;;;;3.10;1.92;;;;;;;2.30;88.99;100261.66;5029541;28;20022;-67
2022/12/10 04:08:15;;;;;;;3.95;1.75;;;;;;;2.22;89.23;100251.78;5025611;28;20498;-65
2022/12/10 04:10:41;;;;;;;3.40;1.95;;;;;;;2.35;89.65;100263.38;5030989;28;20038;-66
2022/12/10 04:18:34;;;;;;;3.92;1.73;;;;;;;2.51;88.87;100253.88;5029766;28;20039;-66
2022/12/10 04:29:12;;;;;;;5.55;2.13;;;;;;;2.70;88.02;100257.03;5027722;28;20029;-67
2022/12/10 04:31:38;;;;;;;6.10;2.55;;;;;;;2.69;87.67;100258.88;5030968;28;20041;-66
2022/12/10 04:34:03;;;;;;;2.30;2.10;;;;;;;2.55;87.53;100260.13;5028352;28;20115;-66
2022/12/10 04:36:29;;;;;;;3.72;1.98;;;;;;;2.66;87.70;100256.88;5030638;28;20148;-65
2022/12/10 04:38:54;;;;;;;3.30;1.55;;;;;;;2.62;87.70;100263.91;5028083;28;20032;-66
2022/12/10 04:41:20;;;;;;;3.40;1.92;;;;;;;2.66;87.50;100261.38;5030799;28;20497;-66
2022/12/10 04:43:45;;;;;;;4.28;2.40;;;;;;;2.73;87.53;100257.16;5026562;28;20033;-66
2022/12/10 04:46:11;;;;;;;2.85;1.77;;;;;;;2.65;87.64;100255.28;5027487;28;20076;-66
2022/12/10 04:48:37;;;;;;;4.45;2.35;;;;;;;2.69;87.33;100255.47;5029777;28;20025;-65
2022/12/10 04:51:04;;;;;;;4.10;2.13;;;;;;;2.70;86.97;100254.34;5030391;28;20524;-65
2022/12/10 04:53:29;;;;;;;3.47;2.15;;;;;;;2.73;87.19;100251.84;5044739;28;20038;-66
2022/12/10 04:55:54;;;;;;;3.65;1.95;;;;;;;2.76;86.72;100255.78;5011050;28;20029;-65
2022/12/10 04:58:20;;;;;;;3.58;2.47;;;;;;;2.79;86.70;100260.44;5041845;28;20033;-65
2022/12/10 05:00:45;;;;;;;5.78;3.10;;;;;;;2.66;86.57;100259.53;5038776;28;20037;-65
2022/12/10 05:03:11;;;;;;;4.22;1.90;;;;;;;2.73;86.63;100256.38;5029074;28;20033;-65
2022/12/10 05:05:36;;;;;;;3.67;1.80;;;;;;;2.82;86.29;100264.38;5030136;28;20631;-65
2022/12/10 05:08:02;;;;;;;6.47;2.10;;;;;;;2.13;86.83;100258.94;5029775;28;20132;-65
2022/12/10 05:10:28;;;;;;;4.18;2.15;;;;;;;2.34;87.32;100267.88;5028226;28;20064;-66
2022/12/10 05:12:53;;;;;;;8.93;2.53;;;;;;;2.43;87.48;100263.41;5026078;28;20025;-66
2022/12/10 05:15:19;;;;;;;4.47;2.53;;;;;;;2.54;86.94;100269.19;5030174;28;20510;-66
2022/12/10 05:17:46;;;;;;;4.50;2.55;;;;;;;2.62;86.99;100268.41;5023462;28;20017;-66
2022/12/10 05:20:12;;;;;;;5.53;2.53;;;;;;;2.62;86.62;100271.06;5027893;28;20037;-65
2022/12/10 05:25:21;;;;;;;6.70;2.90;;;;;;;2.52;87.15;100268.72;5024919;28;20044;-66
2022/12/10 05:27:47;;;;;;;4.32;2.22;;;;;;;2.53;87.14;100259.66;5023133;28;20253;-65
2022/12/10 05:30:12;;;;;;;4.78;2.35;;;;;;;2.52;87.74;100269.50;5027195;28;20037;-65
2022/12/10 05:32:38;;;;;;;3.97;1.88;;;;;;;2.68;87.38;100272.50;5030869;28;20037;-65
2022/12/10 05:35:06;;;;;;;2.65;1.95;;;;;;;2.61;87.05;100267.63;5030410;28;20596;-66
2022/12/10 05:37:32;;;;;;;6.47;3.10;;;;;;;2.56;86.60;100267.78;5029375;28;20505;-66
2022/12/10 05:39:57;;;;;;;3.90;2.10;;;;;;;2.47;86.69;100266.22;5025228;28;20037;-65
2022/12/10 05:42:23;;;;;;;2.63;1.48;;;;;;;2.31;86.55;100265.06;5042656;28;20414;-66
2022/12/10 05:44:48;;;;;;;6.78;2.42;;;;;;;2.14;86.93;100267.69;5030872;28;20405;-65
2022/12/10 05:47:14;;;;;;;2.75;1.85;;;;;;;2.22;87.19;100270.38;5025589;28;20025;-66
2022/12/10 05:49:39;;;;;;;3.97;2.40;;;;;;;2.29;87.52;100269.91;5028876;28;20504;-66
2022/12/10 05:52:05;;;;;;;4.93;2.67;;;;;;;2.13;87.82;100268.81;5026700;28;20048;-65
2022/12/10 05:54:30;;;;;;;4.45;2.58;;;;;;;2.28;87.98;100261.19;5025906;28;20033;-65
2022/12/10 05:56:55;;;;;;;2.90;2.17;;;;;;;2.33;87.53;100270.88;5024768;28;20037;-66
2022/12/10 05:59:21;;;;;;;2.40;1.88;;;;;;;2.37;87.84;100263.84;5014540;28;20406;-66
2022/12/10 06:01:46;;;;;;;4.28;1.98;;;;;;;2.37;87.89;100267.28;5026274;28;20150;-66
2022/12/10 06:04:15;;;;;;;3.25;2.15;;;;;;;2.43;88.37;100271.38;5025665;28;20033;-66
2022/12/10 06:06:41;;;;;;;4.13;2.38;;;;;;;2.50;88.12;100279.66;5029262;28;20462;-67
2022/12/10 06:09:10;;;;;;;3.47;1.85;;;;;;;2.55;87.88;100271.56;5024651;28;20120;-66
2022/12/10 06:11:36;;;;;;;5.53;2.90;;;;;;;2.47;87.96;100279.50;5027428;28;20036;-65
2022/12/10 06:14:02;;;;;;;7.82;2.80;;;;;;;2.48;87.82;100281.84;5027942;28;20037;-66
2022/12/10 06:16:28;;;;;;;5.55;2.80;;;;;;;2.50;88.01;100277.00;5026512;28;20045;-66
2022/12/10 06:18:54;;;;;;;15.35;3.05;;;;;;;2.66;87.51;100280.00;5027657;28;20067;-65
2022/12/10 06:21:20;;;;;;;3.47;2.22;;;;;;;2.64;87.52;100290.94;5024667;28;20045;-66
2022/12/10 06:23:47;;;;;;;8.02;2.50;;;;;;;2.70;87.44;100288.91;5021491;28;20052;-66
2022/12/10 06:26:19;;;;;;;7.00;2.33;;;;;;;2.70;87.13;100288.91;5024183;28;20060;-65
2022/12/10 06:28:45;;;;;;;5.85;2.05;;;;;;;2.71;86.99;100293.91;5021998;28;20030;-65
2022/12/10 06:31:11;;;;;;;4.53;2.15;;;;;;;2.73;87.01;100290.94;5024984;28;20049;-66
2022/12/10 06:33:39;;;;;;;6.43;2.50;;;;;;;2.71;87.22;100287.81;5028726;28;20025;-65
2022/12/10 06:36:07;;;;;;;6.40;2.67;;;;;;;2.70;87.10;100297.66;5025062;28;20587;-66
2022/12/10 06:38:33;;;;;;;5.90;2.63;;;;;;;2.80;86.27;100293.94;5026235;28;20025;-65
2022/12/10 06:40:59;;;;;;;5.55;2.60;;;;;;;2.77;86.09;100286.56;5024075;28;20040;-65
2022/12/10 06:43:29;;;;;;;5.30;2.15;;;;;;;2.74;86.65;100293.31;5020290;28;20041;-65
2022/12/10 06:45:56;;;;;;;2.15;1.77;;;;;;;2.72;86.62;100292.84;5025352;28;20473;-66
2022/12/10 06:48:21;;;;;;;5.60;2.88;;;;;;;2.67;86.66;100295.63;5025234;28;20099;-66
2022/12/10 06:50:47;;;;;;;6.75;3.05;;;;;;;2.66;86.70;100295.94;5025125;28;20088;-65
2022/12/10 06:53:12;;;;;;;5.88;2.67;;;;;;;2.61;87.17;100296.09;5022886;28;20025;-65
2022/12/10 06:55:38;;;;;;;5.82;2.85;;;;;;;2.39;86.99;100297.00;5024181;28;20041;-67
2022/12/10 06:58:04;;;;;;;4.82;1.63;;;;;;;2.31;87.75;100307.56;5026767;28;20084;-66
2022/12/10 07:00:30;;;;;;;7.88;2.22;;;;;;;2.25;87.26;100314.91;5023168;28;20041;-65
2022/12/10 07:02:55;;;;;;;4.15;2.53;;;;;;;2.04;87.69;100307.78;5028626;28;20037;-66
2022/12/10 07:05:21;;;;;;;2.42;1.80;;;;;;;2.04;87.86;100313.09;5023622;28;20409;-65
2022/12/10 07:07:46;;;;;;;1.48;1.25;;;;;;;2.13;87.63;100311.28;5019313;28;20049;-65
2022/12/10 07:10:13;;;;;;;4.90;2.50;;;;;;;2.18;88.08;100314.56;5028995;28;20038;-65
2022/12/10 07:12:38;;;;;;;2.85;1.90;;;;;;;2.23;87.96;100317.09;5026045;28;20049;-66
2022/12/10 07:15:04;;;;;;;5.50;2.30;;;;;;;2.33;87.58;100322.13;5025685;28;20029;-65
2022/12/10 07:17:30;;;;;;;5.85;3.20;;;;;;;2.21;87.18;100323.78;5022664;28;20628;-66
2022/12/10 07:19:55;;;;;;;8.32;2.83;;;;;;;2.08;87.03;100329.97;5028851;28;20029;-65
2022/12/10 07:22:23;;;;;;;8.10;3.22;;;;;;;2.05;87.86;100323.44;5026518;28;20078;-66
2022/12/10 07:24:50;;;;;;;6.63;2.25;;;;;;;2.03;87.82;100324.81;5025818;28;20041;-65
2022/12/10 07:27:15;;;;;;;7.75;2.55;;;;;;;1.78;88.73;100329.69;5025529;28;20026;-66
2022/12/10 07:29:41;;;;;;;4.82;2.20;;;;;;;1.77;88.32;100330.78;5025813;28;20033;-65
2022/12/10 07:32:06;;;;;;;3.42;1.92;;;;;;;2.06;88.68;100332.16;5027318;28;20612;-65
2022/12/10 07:34:31;;;;;;;4.63;2.65;;;;;;;2.18;88.43;100341.13;5029323;28;20107;-65
2022/12/10 07:36:57;;;;;;;3.67;2.45;;;;;;;2.33;87.81;100337.25;5029427;28;20079;-65
2022/12/10 07:39:22;;;;;;;8.82;3.83;;;;;;;2.32;87.33;100333.06;5029271;28;20559;-65
2022/12/10 07:41:52;;;;;;;7.32;2.90;;;;;;;2.31;87.26;100334.94;5030257;28;20532;-65
2022/12/10 07:44:24;;;;;;;3.95;2.17;;;;;;;2.36;87.49;100348.06;5028188;28;20382;-65
2022/12/10 07:46:53;;;;;;;2.20;2.00;;;;;;;2.44;87.32;100338.56;5024580;28;20481;-65
2022/12/10 07:49:18;;;;;;;5.68;2.78;;;;;;;2.34;87.07;100346.81;5025805;28;20037;-66
2022/12/10 07:51:49;;;;;;;6.85;2.58;;;;;;;2.27;87.28;100349.13;5027806;28;20544;-66
2022/12/10 07:54:15;;;;;;;3.95;2.45;;;;;;;2.28;87.32;100338.22;5026289;28;20033;-65
2022/12/10 07:56:41;;;;;;;5.85;2.75;;;;;;;2.23;86.99;100348.94;5026497;28;20029;-65
2022/12/10 07:59:06;;;;;;;5.88;2.95;;;;;;;2.30;86.94;100351.19;5029500;28;20035;-66
2022/12/10 08:01:32;;;;;;;4.57;2.38;;;;;;;2.35;87.17;100354.47;5030847;28;20504;-66
2022/12/10 08:03:57;;;;;;;3.03;2.00;;;;;;;2.21;86.34;100351.13;5029858;28;20440;-65
2022/12/10 08:06:24;;;;;;;13.48;2.38;;;;;;;2.27;86.40;100346.47;5030867;28;20039;-66
2022/12/10 08:08:50;;;;;;;3.38;2.47;;;;;;;2.30;86.38;100349.31;5028848;28;20072;-66
2022/12/10 08:11:17;;;;;;;12.13;2.20;;;;;;;2.39;86.45;100358.09;5028056;28;20383;-66
2022/12/10 08:13:43;;;;;;;2.58;2.00;;;;;;;2.39;86.66;100363.41;5029585;28;20029;-65
2022/12/10 08:16:14;;;;;;;9.93;2.90;;;;;;;2.41;86.55;100355.13;5024110;28;20439;-65
2022/12/10 08:18:40;;;;;;;2.63;2.42;;;;;;;2.36;86.08;100357.91;5024602;28;20025;-65
2022/12/10 08:21:17;;;;;;;3.40;2.35;;;;;;;2.36;85.94;100357.91;5024714;28;20061;-66
2022/12/10 08:23:43;;;;;;;1.67;1.42;;;;;;;2.47;86.16;100364.50;5020799;28;20030;-65
2022/12/10 08:26:12;;;;;;;3.72;1.95;;;;;;;2.48;86.36;100360.75;5026503;28;20064;-66
2022/12/10 08:28:38;;;;;;;5.85;3.08;;;;;;;2.51;85.98;100363.59;5026947;28;20049;-65
2022/12/10 08:31:04;;;;;;;4.80;2.05;;;;;;;2.46;85.72;100357.63;5030310;28;20041;-65
2022/12/10 08:33:29;;;;;;;6.13;2.58;;;;;;;2.55;85.98;100369.06;5010920;28;20055;-66
2022/12/10 08:35:59;;;;;;;3.97;2.38;;;;;;;2.46;86.08;100369.03;5027985;28;20033;-66
2022/12/10 08:38:25;;;;;;;5.50;1.88;;;;;;;2.40;86.51;100362.28;5029215;28;20116;-66
2022/12/10 08:40:50;;;;;;;6.72;1.75;;;;;;;2.40;86.43;100369.50;5027122;28;20041;-66
2022/12/10 08:43:16;;;;;;;3.10;2.25;;;;;;;2.31;86.06;100372.09;5028143;28;20041;-66
2022/12/10 08:45:42;;;;;;;3.42;2.08;;;;;;;2.28;86.63;100374.59;5028299;28;20033;-66
2022/12/10 08:48:07;;;;;;;1.90;1.58;;;;;;;2.35;86.51;100366.97;5020356;28;20068;-65
2022/12/10 08:50:32;;;;;;;3.78;2.38;;;;;;;2.41;86.81;100371.84;5029054;28;20075;-65
2022/12/10 08:52:59;;;;;;;4.30;2.20;;;;;;;2.37;86.86;100380.72;5026682;28;20092;-66
2022/12/10 08:55:25;;;;;;;5.32;1.95;;;;;;;2.46;86.69;100384.19;5028929;28;20540;-66
2022/12/10 08:57:51;;;;;;;3.35;2.35;;;;;;;2.56;86.49;100386.56;5043613;28;20072;-65
2022/12/10 09:00:18;;;;;;;6.40;3.40;;;;;;;2.57;86.74;100388.16;5025331;28;20555;-65
2022/12/10 09:02:44;;;;;;;5.35;3.10;;;;;;;2.52;86.87;100382.97;5025225;28;20520;-65
2022/12/10 09:05:10;;;;;;;2.08;1.55;;;;;;;2.42;86.07;100385.91;5026218;28;20401;-65
2022/12/10 09:07:35;;;;;;;3.25;2.10;;;;;;;2.36;85.82;100395.88;5028258;28;20052;-65
2022/12/10 09:10:04;;;;;;;4.93;2.17;;;;;;;2.31;85.55;100401.31;5026106;28;20033;-65
2022/12/10 09:12:29;;;;;;;2.90;2.20;;;;;;;2.23;85.68;100398.63;5029799;28;20041;-66
2022/12/10 09:14:55;;;;;;;7.63;2.95;;;;;;;2.12;85.93;100397.31;5030070;28;20041;-65
2022/12/10 09:17:21;;;;;;;6.47;3.25;;;;;;;2.25;86.03;100405.19;5029058;28;20037;-66
2022/12/10 09:19:50;;;;;;;5.15;2.78;;;;;;;2.30;86.40;100407.75;5028752;28;20083;-66
2022/12/10 09:22:15;;;;;;;6.10;2.22;;;;;;;2.46;86.11;100402.78;5027403;28;20044;-66
2022/12/10 09:24:41;;;;;;;2.60;2.00;;;;;;;2.58;85.85;100411.75;5042987;28;20063;-65
2022/12/10 09:27:06;;;;;;;4.30;1.98;;;;;;;2.65;85.88;100406.75;5029451;28;20069;-65
2022/12/10 09:29:32;;;;;;;7.05;3.25;;;;;;;2.64;85.87;100413.19;5027114;28;20037;-65
2022/12/10 09:31:57;;;;;;;5.13;2.25;;;;;;;2.72;85.46;100414.31;5023019;28;20041;-65
2022/12/10 09:34:22;;;;;;;6.90;3.78;;;;;;;2.74;85.33;100409.47;5023744;28;20037;-65
2022/12/10 09:36:48;;;;;;;4.63;3.00;;;;;;;2.88;84.79;100410.13;5014965;28;21628;-65
2022/12/10 09:39:14;;;;;;;4.63;2.78;;;;;;;2.85;84.89;100407.28;5020806;28;21017;-65
2022/12/10 09:41:58;;;;;;;3.63;2.22;;;;;;;2.83;84.41;100410.25;5026014;28;20072;-65
2022/12/10 09:44:29;;;;;;;5.47;2.95;;;;;;;2.84;83.31;100411.84;5024905;28;20063;-65
2022/12/10 09:46:57;;;;;;;5.13;3.22;;;;;;;2.75;83.90;100414.47;5025513;28;20037;-64
2022/12/10 09:49:47;;;;;;;6.57;3.80;;;;;;;2.80;83.61;100408.22;5024639;28;20079;-65
2022/12/10 09:52:16;;;;;;;9.05;3.85;;;;;;;2.83;83.84;100406.84;4991731;23;20166;-65
2022/12/10 09:55:03;;;;;;;5.80;2.83;;;;;;;2.83;83.58;100414.81;5007512;28;20033;-66
2022/12/10 09:57:33;;;;;;;4.95;3.03;;;;;;;2.83;83.91;100410.25;5013988;28;20080;-65
2022/12/10 10:00:30;;;;;;;3.30;2.38;;;;;;;2.56;83.30;100407.81;5010931;28;20176;-65
2022/12/10 10:02:59;;;;;;;2.28;1.73;;;;;;;2.48;83.43;100411.22;4991089;28;20441;-66
2022/12/10 10:05:31;;;;;;;5.20;1.90;;;;;;;2.50;83.71;100401.88;4983657;28;20045;-65
2022/12/10 10:08:01;;;;;;;2.03;1.65;;;;;;;2.48;83.89;100403.25;4988567;28;20124;-65
2022/12/10 10:10:40;;;;;;;3.45;1.77;;;;;;;2.49;83.89;100396.88;4983989;28;20041;-65
2022/12/10 10:13:08;;;;;;;3.00;2.28;;;;;;;2.52;83.98;100405.00;4980780;28;20133;-65
2022/12/10 10:15:41;;;;;;;3.42;2.33;;;;;;;2.59;83.27;100404.56;4984278;28;20630;-66
2022/12/10 10:18:39;;;;;;;6.70;2.88;;;;;;;2.43;83.21;100398.88;4989469;28;20034;-66
2022/12/10 10:21:11;;;;;;;2.95;2.55;;;;;;;2.41;83.47;100402.94;4986928;28;20042;-65
2022/12/10 10:23:45;;;;;;;3.15;2.25;;;;;;;2.40;83.93;100406.69;4994547;28;20034;-66
2022/12/10 10:26:10;;;;;;;6.45;2.85;;;;;;;2.31;84.30;100409.28;4991520;28;20097;-65
2022/12/10 10:28:40;;;;;;;3.25;2.17;;;;;;;2.16;84.93;100400.94;5001850;28;20018;-65
2022/12/10 10:31:18;;;;;;;4.00;2.42;;;;;;;2.00;85.60;100399.75;5000211;28;20042;-65
2022/12/10 10:33:59;;;;;;;5.28;2.70;;;;;;;2.33;85.03;100396.50;5001704;28;20069;-66
2022/12/10 10:36:34;;;;;;;3.63;3.08;;;;;;;2.37;84.69;100410.72;4997810;28;20033;-65
2022/12/10 10:39:31;;;;;;;3.65;2.47;;;;;;;2.56;84.57;100413.94;5004815;28;20041;-65
2022/12/10 10:42:17;;;;;;;5.32;2.47;;;;;;;2.68;83.97;100410.69;4993928;28;20070;-66
2022/12/10 10:44:44;;;;;;;4.65;2.72;;;;;;;2.67;84.23;100417.13;4930609;28;20091;-65
2022/12/10 10:47:28;;;;;;;5.97;3.05;;;;;;;2.79;83.66;100416.53;4925826;29;20059;-65
2022/12/10 10:49:53;;;;;;;3.58;2.05;;;;;;;2.86;82.99;100419.50;4929199;29;20039;-66
2022/12/10 10:52:19;;;;;;;7.20;3.13;;;;;;;2.77;82.80;100414.16;4928549;29;20085;-65
2022/12/10 10:54:45;;;;;;;5.57;3.47;;;;;;;2.63;83.07;100414.25;4928164;29;20043;-65
2022/12/10 10:57:33;;;;;;;4.38;2.53;;;;;;;2.72;83.11;100416.97;4931995;29;20412;-65
2022/12/10 11:00:25;;;;;;;6.20;2.60;;;;;;;2.75;82.93;100413.66;4915260;29;20141;-66
2022/12/10 11:02:51;;;;;;;6.93;2.38;;;;;;;2.83;82.86;100412.16;4908471;29;20059;-65
2022/12/10 11:05:23;;;;;;;2.22;1.98;;;;;;;2.85;82.77;100412.59;4923981;29;20443;-67
2022/12/10 11:07:57;;;;;;;4.40;2.47;;;;;;;2.70;82.79;100406.66;4930604;29;20435;-68
2022/12/10 11:10:24;;;;;;;3.85;2.78;;;;;;;2.82;82.90;100423.88;4919970;29;20552;-68
2022/12/10 11:12:56;;;;;;;2.63;1.88;;;;;;;2.83;82.89;100412.16;4905380;29;20040;-67
2022/12/10 11:15:22;;;;;;;4.28;2.92;;;;;;;2.84;82.74;100406.53;4927414;29;20130;-65
2022/12/10 11:17:49;;;;;;;8.07;2.75;;;;;;;2.84;82.72;100406.53;4925243;29;20123;-65
2022/12/10 11:20:20;;;;;;;5.55;3.30;;;;;;;2.85;82.79;100401.97;4909280;29;20095;-65
2022/12/10 11:22:58;;;;;;;7.38;3.45;;;;;;;2.76;83.56;100404.63;4993563;28;20046;-66
2022/12/10 11:25:41;;;;;;;5.82;3.53;;;;;;;2.76;83.54;100409.94;4995267;28;20045;-65
2022/12/10 11:28:40;;;;;;;8.70;3.10;;;;;;;2.71;84.02;100407.41;4993440;28;20035;-65
2022/12/10 11:31:26;;;;;;;7.35;2.15;;;;;;;2.71;84.33;100402.09;4978977;28;20050;-65
2022/12/10 11:34:01;;;;;;;2.85;2.05;;;;;;;2.70;84.08;100400.53;4975261;28;20037;-65
2022/12/10 11:36:39;;;;;;;5.68;2.55;;;;;;;2.66;84.33;100399.59;4994467;28;20061;-65
2022/12/10 11:39:31;;;;;;;5.78;2.60;;;;;;;2.61;84.55;100399.72;4993552;28;21035;-65
2022/12/10 11:42:04;;;;;;;7.93;3.25;;;;;;;2.72;84.52;100399.16;4990017;28;20036;-66
2022/12/10 11:44:47;;;;;;;5.72;3.17;;;;;;;2.71;84.28;100394.13;4986877;28;20046;-65
2022/12/10 11:47:49;;;;;;;5.85;2.78;;;;;;;2.78;83.89;100397.13;4992705;28;20113;-67
2022/12/10 11:50:33;;;;;;;6.05;3.45;;;;;;;2.79;83.55;100398.69;4991428;28;20034;-68
2022/12/10 11:53:24;;;;;;;7.70;3.25;;;;;;;2.79;83.84;100398.69;4988933;28;20038;-67
2022/12/10 11:56:20;;;;;;;5.10;3.00;;;;;;;2.76;83.43;100409.94;4988156;28;20034;-64
2022/12/10 11:58:49;;;;;;;10.35;3.67;;;;;;;2.69;83.50;100405.06;4986785;28;20042;-68
2022/12/10 12:02:08;;;;;;;7.40;3.72;;;;;;;2.68;83.66;100406.16;4986737;28;20503;-64
2022/12/10 12:05:01;;;;;;;10.35;2.92;;;;;;;2.80;83.54;100394.16;4962826;28;20499;-67